Time;durP1;ratioP1;P1;durP2;ratioP2;P2;SDS_P1;SDS_P2;PMS_P1;PMS_P2;Temp;Humidity;BMP_temperature;BMP_pressure;BME280_temperature;BME280_humidity;BME280_pressure;Samples;Min_cycle;Max_cycle;Signal;HPM_P1;HPM_P2
2022/11/17 00:01:07;;;;;;;3.30;0.57;;;;;;;7.55;100.00;96974.72;5039299;28;20032;-66
2022/11/17 00:03:33;;;;;;;1.45;0.00;;;;;;;7.56;100.00;96973.69;5060595;28;20641;-65
2022/11/17 00:06:03;;;;;;;2.67;0.13;;;;;;;7.60;100.00;96973.97;5059488;28;20029;-65
2022/11/17 00:08:29;;;;;;;1.92;0.10;;;;;;;7.62;100.00;96974.50;5058683;28;20478;-65
2022/11/17 00:10:59;;;;;;;0.40;0.40;;;;;;;7.65;100.00;96982.69;5065445;28;20039;-66
2022/11/17 00:16:12;;;;;;;1.75;0.35;;;;;;;7.70;100.00;97000.38;5052000;28;20050;-65
2022/11/17 00:21:22;;;;;;;0.55;0.03;;;;;;;7.78;100.00;97001.75;5055377;28;20074;-66
2022/11/17 00:23:51;;;;;;;4.30;0.82;;;;;;;7.83;100.00;97007.03;5038913;28;20033;-66
2022/11/17 00:26:18;;;;;;;2.40;0.40;;;;;;;7.89;100.00;97010.47;5052735;28;20033;-66
2022/11/17 00:28:44;;;;;;;0.82;0.80;;;;;;;7.89;100.00;97003.34;5032073;28;20038;-66
2022/11/17 00:34:05;;;;;;;2.47;0.08;;;;;;;7.92;100.00;97010.75;5050479;28;20039;-65
2022/11/17 00:36:38;;;;;;;1.20;0.00;;;;;;;7.95;100.00;97012.88;5031712;28;20048;-65
2022/11/17 00:39:05;;;;;;;4.65;1.30;;;;;;;7.96;100.00;97009.19;5054424;28;20025;-66
2022/11/17 00:41:31;;;;;;;3.08;0.38;;;;;;;7.98;100.00;97011.59;5053507;28;20502;-66
2022/11/17 00:43:56;;;;;;;0.10;0.00;;;;;;;7.97;100.00;97012.63;5054149;28;20068;-66
2022/11/17 00:46:22;;;;;;;1.13;0.10;;;;;;;7.96;100.00;97011.81;5064878;28;20035;-66
2022/11/17 00:48:47;;;;;;;2.80;0.00;;;;;;;7.95;100.00;97020.81;5052778;28;20119;-65
2022/11/17 00:51:12;;;;;;;0.20;0.10;;;;;;;7.96;100.00;97027.66;5053963;28;20140;-65
2022/11/17 00:53:38;;;;;;;1.98;0.10;;;;;;;7.96;100.00;97026.88;5056798;28;20038;-65
2022/11/17 01:46:38;;;;;;;1.45;0.45;;;;;;;7.65;100.00;97098.72;5059275;28;20055;-64
2022/11/17 01:49:38;;;;;;;1.17;0.93;;;;;;;7.61;100.00;97104.75;5044800;28;20029;-65
2022/11/17 01:55:34;;;;;;;0.35;0.25;;;;;;;7.46;100.00;97123.91;5057358;28;20508;-65
2022/11/17 01:58:13;;;;;;;0.10;0.00;;;;;;;7.42;100.00;97125.44;5058476;28;20039;-65
2022/11/17 02:00:39;;;;;;;2.70;0.05;;;;;;;7.38;100.00;97125.16;5058888;28;20071;-66
2022/11/17 02:03:06;;;;;;;1.05;0.00;;;;;;;7.37;100.00;97130.69;5057450;28;20078;-65
2022/11/17 02:05:43;;;;;;;0.15;0.00;;;;;;;7.37;100.00;97131.47;5032871;28;20401;-65
2022/11/17 02:08:10;;;;;;;0.35;0.00;;;;;;;7.35;100.00;97144.09;5057339;28;20128;-65
2022/11/17 02:10:36;;;;;;;2.42;0.28;;;;;;;7.30;100.00;97143.25;5059282;28;20021;-66
2022/11/17 02:13:02;;;;;;;2.72;0.05;;;;;;;7.25;100.00;97151.91;5059744;28;20036;-65
2022/11/17 02:15:28;;;;;;;0.00;0.00;;;;;;;7.25;100.00;97148.47;5064238;28;20020;-66
2022/11/17 02:17:55;;;;;;;0.00;0.00;;;;;;;7.21;100.00;97150.84;5056461;28;20028;-66
2022/11/17 02:20:38;;;;;;;0.38;0.00;;;;;;;7.18;100.00;97160.03;5056264;28;20040;-66
2022/11/17 02:23:36;;;;;;;0.00;0.00;;;;;;;7.18;100.00;97162.66;5053147;28;20359;-66
2022/11/17 02:26:38;;;;;;;0.45;0.00;;;;;;;7.15;100.00;97173.72;5055970;28;20039;-65
2022/11/17 02:29:08;;;;;;;0.00;0.00;;;;;;;7.10;100.00;97184.22;5060067;28;20163;-64
2022/11/17 02:31:58;;;;;;;0.00;0.00;;;;;;;7.09;100.00;97187.88;5056421;28;20040;-65
2022/11/17 02:34:42;;;;;;;0.20;0.00;;;;;;;7.07;100.00;97194.44;5035761;28;20489;-65
2022/11/17 02:37:23;;;;;;;0.00;0.00;;;;;;;7.08;100.00;97199.47;5052805;28;20120;-65
2022/11/17 02:39:54;;;;;;;;;;;;;;;7.08;100.00;97201.31;5053873;28;20452;-66
2022/11/17 02:46:01;;;;;;;0.00;0.00;;;;;;;7.05;100.00;97234.22;5062324;28;20534;-66
2022/11/17 02:48:34;;;;;;;1.80;0.00;;;;;;;7.02;100.00;97237.31;5044075;28;20020;-60
2022/11/17 02:51:02;;;;;;;0.52;0.00;;;;;;;6.99;100.00;97237.81;5059241;28;20044;-65
2022/11/17 02:53:29;;;;;;;1.75;0.00;;;;;;;6.99;100.00;97250.97;5059397;28;20454;-66
2022/11/17 02:55:59;;;;;;;0.00;0.00;;;;;;;6.97;100.00;97253.09;5041130;28;20021;-65
2022/11/17 02:58:24;;;;;;;0.00;0.00;;;;;;;6.93;100.00;97257.25;5055905;28;20081;-65
2022/11/17 03:00:54;;;;;;;0.00;0.00;;;;;;;6.89;100.00;97264.03;5056030;28;20474;-64
2022/11/17 03:03:38;;;;;;;1.70;0.10;;;;;;;6.89;100.00;97269.31;5057857;28;20496;-64
2022/11/17 03:06:20;;;;;;;1.75;1.33;;;;;;;6.90;100.00;97278.81;5056473;28;20029;-64
2022/11/17 03:08:51;;;;;;;0.10;0.08;;;;;;;6.89;100.00;97285.94;5058691;28;20028;-64
2022/11/17 03:11:26;;;;;;;0.57;0.17;;;;;;;6.90;100.00;97286.72;5053206;28;20036;-62
2022/11/17 03:14:13;;;;;;;0.25;0.00;;;;;;;6.90;100.00;97290.13;5058700;28;20041;-65
2022/11/17 03:17:11;;;;;;;0.10;0.00;;;;;;;6.90;100.00;97292.78;5058242;28;20037;-64
2022/11/17 03:19:57;;;;;;;0.10;0.10;;;;;;;6.91;100.00;97297.00;5066333;28;20413;-64
2022/11/17 03:22:37;;;;;;;1.33;0.00;;;;;;;6.91;100.00;97306.72;5052432;28;20117;-64
2022/11/17 03:25:08;;;;;;;0.13;0.00;;;;;;;6.92;100.00;97308.34;5061280;28;20399;-64
2022/11/17 03:27:42;;;;;;;0.38;0.00;;;;;;;6.94;100.00;97327.31;5062203;28;20509;-61
2022/11/17 03:30:09;;;;;;;1.17;0.63;;;;;;;6.93;100.00;97317.81;5038331;28;20077;-62
2022/11/17 03:32:40;;;;;;;4.40;0.10;;;;;;;6.95;100.00;97331.56;5036333;28;20025;-63
2022/11/17 03:35:16;;;;;;;0.88;0.00;;;;;;;6.96;100.00;97327.88;5052861;28;20045;-63
2022/11/17 03:37:46;;;;;;;0.35;0.10;;;;;;;6.96;100.00;97339.19;5052205;28;20045;-58
2022/11/17 03:40:13;;;;;;;0.00;0.00;;;;;;;6.98;100.00;97341.59;5054849;28;20032;-61
2022/11/17 03:42:51;;;;;;;0.35;0.08;;;;;;;6.96;100.00;97357.63;5057501;28;20048;-54
2022/11/17 03:45:25;;;;;;;1.08;0.00;;;;;;;6.97;100.00;97342.66;5038456;28;20049;-58
2022/11/17 03:48:02;;;;;;;0.95;0.10;;;;;;;6.96;100.00;97365.53;5055983;28;20053;-63
2022/11/17 03:50:44;;;;;;;0.10;0.05;;;;;;;6.97;100.00;97343.44;5055091;28;20049;-63
2022/11/17 03:53:09;;;;;;;0.52;0.13;;;;;;;6.96;100.00;97362.09;5058489;28;20071;-63
2022/11/17 03:56:16;;;;;;;0.38;0.03;;;;;;;6.98;100.00;97370.56;5054270;28;20056;-62
2022/11/17 03:58:58;;;;;;;0.00;0.00;;;;;;;6.99;100.00;97377.41;5038342;28;20037;-64
2022/11/17 04:01:26;;;;;;;2.55;0.17;;;;;;;6.97;100.00;97375.03;5055989;28;20126;-64
2022/11/17 04:03:52;;;;;;;1.08;0.08;;;;;;;6.98;100.00;97375.84;5052858;28;20116;-62
2022/11/17 04:06:17;;;;;;;0.30;0.10;;;;;;;6.98;100.00;97384.53;5057304;28;20065;-63
2022/11/17 04:08:43;;;;;;;0.22;0.00;;;;;;;7.03;100.00;97385.66;5051708;28;20925;-63
2022/11/17 04:16:36;;;;;;;0.75;0.00;;;;;;;7.06;100.00;97414.94;5059721;28;20493;-64
2022/11/17 04:19:02;;;;;;;0.35;0.10;;;;;;;7.06;100.00;97409.66;5059519;28;20040;-62
2022/11/17 04:21:27;;;;;;;1.90;0.38;;;;;;;7.07;100.00;97424.41;5057041;28;20025;-61
2022/11/17 04:23:52;;;;;;;2.20;0.00;;;;;;;7.05;100.00;97426.53;5060242;28;20035;-62
2022/11/17 04:29:02;;;;;;;0.00;0.00;;;;;;;7.08;100.00;97435.78;5054933;28;20035;-61
2022/11/17 04:31:29;;;;;;;2.65;0.10;;;;;;;7.08;100.00;97433.94;5059964;28;20377;-61
2022/11/17 04:34:00;;;;;;;0.43;0.20;;;;;;;7.09;100.00;97440.00;5054448;28;20119;-62
2022/11/17 04:36:28;;;;;;;0.08;0.08;;;;;;;7.08;100.00;97447.09;5055179;28;20024;-61
2022/11/17 04:38:55;;;;;;;0.32;0.22;;;;;;;7.09;100.00;97453.97;5062669;28;20055;-61
2022/11/17 04:44:08;;;;;;;0.20;0.10;;;;;;;7.08;100.00;97464.75;5053994;28;20055;-60
2022/11/17 04:46:35;;;;;;;0.98;0.10;;;;;;;7.09;100.00;97482.16;5045468;28;20025;-58
2022/11/17 04:49:01;;;;;;;0.45;0.15;;;;;;;7.09;100.00;97482.16;5054751;28;20477;-61
2022/11/17 04:51:28;;;;;;;0.63;0.20;;;;;;;7.08;100.00;97481.34;5065562;28;20053;-61
2022/11/17 04:53:54;;;;;;;0.77;0.30;;;;;;;7.07;100.00;97479.75;5045724;28;20124;-63
2022/11/17 04:56:21;;;;;;;0.32;0.32;;;;;;;7.06;100.00;97486.06;5060987;28;21354;-61
2022/11/17 04:58:47;;;;;;;0.20;0.00;;;;;;;7.04;100.00;97503.94;5052641;28;20063;-60
2022/11/17 05:01:15;;;;;;;4.63;0.10;;;;;;;7.03;100.00;97498.94;5060292;28;20024;-58
2022/11/17 05:03:48;;;;;;;2.03;0.28;;;;;;;6.99;100.00;97495.97;5059770;28;20040;-59
2022/11/17 05:06:25;;;;;;;0.32;0.20;;;;;;;6.99;100.00;97504.66;5055183;28;20498;-60
2022/11/17 05:08:54;;;;;;;0.85;0.73;;;;;;;6.96;100.00;97510.41;5059048;28;20044;-60
2022/11/17 05:14:06;;;;;;;1.10;0.13;;;;;;;6.91;100.00;97506.91;5060589;28;20571;-63
2022/11/17 05:19:20;;;;;;;0.20;0.10;;;;;;;6.89;100.00;97517.69;5056736;28;20090;-61
2022/11/17 05:21:46;;;;;;;1.27;0.10;;;;;;;6.88;100.00;97523.19;5059857;28;20155;-61
2022/11/17 05:24:13;;;;;;;0.15;0.00;;;;;;;6.88;100.00;97537.16;5050701;28;20059;-62
2022/11/17 05:26:39;;;;;;;0.55;0.20;;;;;;;6.87;100.00;97527.66;5056400;28;20025;-63
2022/11/17 05:29:06;;;;;;;0.10;0.10;;;;;;;6.88;100.00;97533.72;5059040;28;20031;-61
2022/11/17 05:31:32;;;;;;;1.83;0.08;;;;;;;6.87;100.00;97547.94;5056946;28;20075;-61
2022/11/17 05:33:58;;;;;;;0.25;0.25;;;;;;;6.87;100.00;97543.47;5061002;28;20028;-63
2022/11/17 05:36:25;;;;;;;0.10;0.10;;;;;;;6.87;100.00;97567.19;5054173;28;20142;-60
2022/11/17 05:38:51;;;;;;;1.88;0.88;;;;;;;6.85;100.00;97565.81;5062004;28;20032;-59
2022/11/17 05:41:17;;;;;;;1.95;0.17;;;;;;;6.85;100.00;97568.44;5053213;28;20389;-61
2022/11/17 05:43:43;;;;;;;0.35;0.00;;;;;;;6.84;100.00;97577.38;5060962;28;20043;-63
2022/11/17 05:46:09;;;;;;;1.00;0.40;;;;;;;6.84;100.00;97580.00;5057554;28;20024;-62
2022/11/17 05:48:35;;;;;;;0.70;0.38;;;;;;;6.85;100.00;97584.25;5058452;28;20028;-61
2022/11/17 05:51:01;;;;;;;0.43;0.13;;;;;;;6.84;100.00;97587.91;5061671;28;20060;-62
2022/11/17 05:53:28;;;;;;;0.05;0.03;;;;;;;6.86;100.00;97583.19;5053978;28;20420;-62
2022/11/17 05:56:21;;;;;;;0.80;0.20;;;;;;;6.88;100.00;97591.66;5056136;28;20214;-63
2022/11/17 05:58:51;;;;;;;1.60;0.30;;;;;;;6.85;100.00;97589.53;5064367;28;20056;-63
2022/11/17 06:01:19;;;;;;;0.73;0.25;;;;;;;6.85;100.00;97606.13;5053765;28;20024;-61
2022/11/17 06:03:49;;;;;;;0.30;0.28;;;;;;;6.86;100.00;97612.97;5058098;28;20051;-62
2022/11/17 06:06:15;;;;;;;3.13;0.22;;;;;;;6.86;100.00;97615.59;5061350;28;20060;-60
2022/11/17 06:08:41;;;;;;;1.67;0.30;;;;;;;6.86;100.00;97625.34;5040650;28;20501;-61
2022/11/17 06:11:06;;;;;;;2.63;0.10;;;;;;;6.85;100.00;97626.38;5064881;28;20024;-64
2022/11/17 06:13:31;;;;;;;0.17;0.17;;;;;;;6.84;100.00;97633.50;5060851;28;20046;-61
2022/11/17 06:16:00;;;;;;;2.20;0.03;;;;;;;6.84;100.00;97633.50;5059874;28;20355;-63
2022/11/17 06:18:30;;;;;;;0.47;0.30;;;;;;;6.83;100.00;97626.63;5059202;28;20070;-63
2022/11/17 06:20:56;;;;;;;0.32;0.32;;;;;;;6.83;100.00;97634.50;5055039;28;20029;-63
2022/11/17 06:23:25;;;;;;;0.38;0.22;;;;;;;6.83;100.00;97637.16;5040722;28;20584;-61
2022/11/17 06:25:51;;;;;;;0.28;0.10;;;;;;;6.83;100.00;97645.06;5058183;28;20487;-62
2022/11/17 06:28:19;;;;;;;1.15;0.38;;;;;;;6.85;100.00;97655.38;5059385;28;20025;-60
2022/11/17 06:30:45;;;;;;;1.50;0.73;;;;;;;6.84;100.00;97657.19;5061387;28;20028;-62
2022/11/17 06:33:14;;;;;;;0.30;0.17;;;;;;;6.87;100.00;97654.09;5063560;28;20094;-62
2022/11/17 06:35:42;;;;;;;0.68;0.50;;;;;;;6.86;100.00;97664.84;5055036;28;20040;-62
2022/11/17 06:38:07;;;;;;;2.03;1.58;;;;;;;6.85;100.00;97655.38;5052386;28;20032;-61
2022/11/17 06:40:32;;;;;;;0.88;0.57;;;;;;;6.86;100.00;97670.91;5057315;28;20043;-58
2022/11/17 06:43:10;;;;;;;1.83;0.47;;;;;;;6.87;100.00;97671.72;5037249;28;20029;-62
2022/11/17 06:45:39;;;;;;;5.97;0.55;;;;;;;6.91;100.00;97670.22;5058829;28;20038;-60
2022/11/17 06:48:06;;;;;;;2.28;0.22;;;;;;;6.89;100.00;97673.09;5057826;28;20063;-61
2022/11/17 06:50:32;;;;;;;0.77;0.40;;;;;;;6.89;100.00;97673.09;5056358;28;20406;-57
2022/11/17 06:52:59;;;;;;;0.60;0.45;;;;;;;6.89;100.00;97688.09;5053468;28;20032;-61
2022/11/17 06:55:25;;;;;;;1.60;0.20;;;;;;;6.88;100.00;97686.50;5061093;28;20124;-61
2022/11/17 06:57:51;;;;;;;1.40;0.30;;;;;;;6.88;100.00;97689.13;5061100;28;20115;-57
2022/11/17 07:00:17;;;;;;;1.55;1.45;;;;;;;6.88;100.00;97687.28;5060748;28;20030;-61
2022/11/17 07:02:42;;;;;;;0.38;0.30;;;;;;;6.89;100.00;97690.72;5062437;28;20565;-63
2022/11/17 07:05:08;;;;;;;1.30;0.35;;;;;;;6.88;100.00;97704.94;5056172;28;20127;-54
2022/11/17 07:07:34;;;;;;;0.50;0.35;;;;;;;6.88;100.00;97710.19;5061061;28;20484;-62
2022/11/17 07:09:59;;;;;;;0.70;0.20;;;;;;;6.89;100.00;97703.88;5052399;28;20248;-60
2022/11/17 07:12:24;;;;;;;1.58;0.45;;;;;;;6.89;100.00;97706.50;5056374;28;20074;-60
2022/11/17 07:14:50;;;;;;;1.85;0.30;;;;;;;6.87;100.00;97713.88;5052260;28;20113;-55
2022/11/17 07:17:15;;;;;;;0.20;0.20;;;;;;;6.87;100.00;97712.03;5055057;28;20047;-60
2022/11/17 07:19:40;;;;;;;0.20;0.20;;;;;;;6.88;100.00;97723.38;5062720;28;20031;-60
2022/11/17 07:22:05;;;;;;;2.95;0.30;;;;;;;6.87;100.00;97711.25;5058106;28;20032;-57
2022/11/17 07:24:31;;;;;;;2.08;0.65;;;;;;;6.86;100.00;97728.84;5055649;28;20039;-60
2022/11/17 07:26:56;;;;;;;2.55;0.40;;;;;;;6.85;100.00;97723.84;5053032;28;20074;-60
2022/11/17 07:29:22;;;;;;;0.82;0.35;;;;;;;6.86;100.00;97730.69;5060737;28;20083;-60
2022/11/17 07:31:47;;;;;;;0.28;0.25;;;;;;;6.85;100.00;97739.66;5057242;28;20476;-60
2022/11/17 07:34:12;;;;;;;1.00;0.25;;;;;;;6.85;100.00;97735.16;5057255;28;20532;-59
2022/11/17 07:36:38;;;;;;;1.00;0.32;;;;;;;6.85;100.00;97729.09;5059149;28;20389;-60
2022/11/17 07:39:04;;;;;;;0.47;0.28;;;;;;;6.87;100.00;97753.38;5055372;28;20055;-62
2022/11/17 07:41:30;;;;;;;0.88;0.80;;;;;;;6.86;100.00;97752.56;5050509;28;20025;-62
2022/11/17 07:43:57;;;;;;;1.00;0.52;;;;;;;6.88;100.00;97747.06;5050739;28;20037;-61
2022/11/17 07:46:23;;;;;;;1.50;0.98;;;;;;;6.87;100.00;97748.13;5053647;28;20099;-63
2022/11/17 07:48:53;;;;;;;0.50;0.50;;;;;;;6.90;100.00;97760.81;5053400;28;20033;-59
2022/11/17 07:51:18;;;;;;;0.98;0.30;;;;;;;6.89;100.00;97767.91;5063689;28;20052;-63
2022/11/17 07:53:43;;;;;;;3.33;1.10;;;;;;;6.87;100.00;97756.81;5029257;28;20294;-63
2022/11/17 07:56:10;;;;;;;0.60;0.60;;;;;;;6.90;100.00;97760.81;5046283;28;20055;-62
2022/11/17 07:58:37;;;;;;;2.65;0.82;;;;;;;6.88;100.00;97763.66;5047874;28;20108;-62
2022/11/17 08:01:14;;;;;;;1.15;0.88;;;;;;;6.91;100.00;97773.72;5047423;28;20216;-63
2022/11/17 08:03:39;;;;;;;0.77;0.70;;;;;;;6.89;100.00;97769.72;5048774;28;20495;-62
2022/11/17 08:06:06;;;;;;;3.40;1.45;;;;;;;6.90;100.00;97771.34;5046023;28;20120;-62
2022/11/17 08:08:32;;;;;;;2.35;1.67;;;;;;;6.91;100.00;97788.75;5053209;28;20036;-61
2022/11/17 08:11:07;;;;;;;1.33;0.70;;;;;;;6.94;100.00;97775.09;5059522;28;20021;-65
2022/11/17 08:13:34;;;;;;;2.17;1.25;;;;;;;6.94;100.00;97788.28;5055637;28;20116;-64
2022/11/17 08:15:59;;;;;;;2.10;1.60;;;;;;;6.95;100.00;97792.53;5055906;28;20032;-64
2022/11/17 08:18:25;;;;;;;2.40;1.02;;;;;;;6.98;100.00;97787.59;5036961;28;20366;-63
2022/11/17 08:20:51;;;;;;;1.52;1.15;;;;;;;7.01;100.00;97790.78;5057251;28;20029;-64
2022/11/17 08:23:17;;;;;;;2.50;1.92;;;;;;;7.03;100.00;97796.63;5060639;28;20056;-64
2022/11/17 08:25:43;;;;;;;4.35;1.13;;;;;;;7.05;100.00;97802.44;5061467;28;20025;-64
2022/11/17 08:28:09;;;;;;;8.57;1.70;;;;;;;7.09;100.00;97795.69;5055502;28;20185;-64
2022/11/17 08:30:34;;;;;;;4.68;1.00;;;;;;;7.09;100.00;97796.47;5059388;28;20433;-65
2022/11/17 08:33:01;;;;;;;1.20;0.93;;;;;;;7.13;100.00;97808.16;5058630;28;20036;-64
2022/11/17 08:35:27;;;;;;;1.65;0.82;;;;;;;7.14;100.00;97809.75;5060760;28;20053;-64
2022/11/17 08:37:52;;;;;;;1.90;1.75;;;;;;;7.17;100.00;97809.28;5047753;28;20036;-62
2022/11/17 08:40:18;;;;;;;3.65;1.33;;;;;;;7.18;100.00;97820.66;5064237;28;20036;-64
2022/11/17 08:42:44;;;;;;;1.35;0.80;;;;;;;7.17;100.00;97817.19;5058445;28;20494;-63
2022/11/17 08:45:10;;;;;;;1.52;1.38;;;;;;;7.20;100.00;97826.47;5062469;28;20377;-63
2022/11/17 08:47:36;;;;;;;3.13;1.60;;;;;;;7.19;100.00;97825.66;5060011;28;20025;-63
2022/11/17 08:50:04;;;;;;;1.85;0.70;;;;;;;7.22;100.00;97835.75;5045146;28;20670;-63
2022/11/17 08:52:29;;;;;;;1.95;0.45;;;;;;;7.22;100.00;97822.56;5045824;28;20036;-62
2022/11/17 08:54:55;;;;;;;1.95;0.93;;;;;;;7.24;100.00;97835.50;5066145;28;20032;-63
2022/11/17 08:57:23;;;;;;;1.35;1.00;;;;;;;7.26;100.00;97837.94;5057862;28;20024;-63
2022/11/17 08:59:48;;;;;;;2.08;1.02;;;;;;;7.31;100.00;97832.75;5052243;28;20032;-62
2022/11/17 09:02:14;;;;;;;2.78;1.05;;;;;;;7.30;100.00;97836.41;5055362;28;20101;-62
2022/11/17 09:04:39;;;;;;;0.73;0.43;;;;;;;7.31;100.00;97824.84;5059222;28;20538;-63
2022/11/17 09:07:05;;;;;;;1.05;0.65;;;;;;;7.34;100.00;97834.91;5061373;28;20028;-63
2022/11/17 09:09:31;;;;;;;1.27;1.08;;;;;;;7.36;100.00;97828.38;5057620;28;20024;-63
2022/11/17 09:11:57;;;;;;;1.58;1.30;;;;;;;7.36;100.00;97832.84;5064485;28;20029;-63
2022/11/17 09:14:23;;;;;;;2.88;0.47;;;;;;;7.35;100.00;97826.75;5037923;28;20109;-64
2022/11/17 09:16:48;;;;;;;2.30;1.02;;;;;;;7.33;100.00;97818.31;5056152;28;20079;-63
2022/11/17 09:19:15;;;;;;;2.88;0.55;;;;;;;7.36;100.00;97819.69;5054513;28;20025;-63
2022/11/17 09:21:40;;;;;;;1.58;0.75;;;;;;;7.39;100.00;97813.94;5037163;28;20147;-62
2022/11/17 09:24:06;;;;;;;0.75;0.55;;;;;;;7.41;100.00;97810.03;5049526;28;20103;-63
2022/11/17 09:26:31;;;;;;;1.20;0.82;;;;;;;7.42;100.00;97813.44;5057424;28;20086;-60
2022/11/17 09:29:02;;;;;;;4.85;1.10;;;;;;;7.46;100.00;97811.13;5062605;28;20020;-62
2022/11/17 09:31:28;;;;;;;;;;;;;;;7.50;100.00;97817.53;5069152;28;20437;-63
2022/11/17 09:33:54;;;;;;;0.98;0.40;;;;;;;7.48;100.00;97807.22;5066357;28;19920;-63
2022/11/17 09:36:19;;;;;;;1.98;0.20;;;;;;;7.49;100.00;97810.69;5049233;28;20036;-64
2022/11/17 09:38:45;;;;;;;1.58;0.60;;;;;;;7.49;100.00;97813.31;5066638;28;20095;-62
2022/11/17 09:41:20;;;;;;;2.67;0.88;;;;;;;7.50;100.00;97814.91;5054920;28;20017;-63
2022/11/17 09:43:51;;;;;;;4.18;0.77;;;;;;;7.54;100.00;97814.22;5057565;28;20040;-63
2022/11/17 09:46:31;;;;;;;;;;;;;;;7.54;100.00;97813.41;5057774;28;20120;-61
2022/11/17 09:49:33;;;;;;;0.45;0.10;;;;;;;7.54;100.00;97819.47;5055442;28;20269;-62
2022/11/17 09:52:10;;;;;;;2.25;0.75;;;;;;;7.56;100.00;97816.59;5050379;28;20442;-61
2022/11/17 09:54:54;;;;;;;3.85;1.20;;;;;;;7.62;100.00;97808.56;5054147;28;20086;-61
2022/11/17 09:57:26;;;;;;;3.17;0.52;;;;;;;7.62;100.00;97808.56;5072360;28;20024;-62
2022/11/17 10:00:03;;;;;;;6.13;0.47;;;;;;;7.61;100.00;97812.22;5047304;28;20029;-63
2022/11/17 10:02:28;;;;;;;0.68;0.50;;;;;;;7.63;100.00;97817.25;5042369;28;20028;-62
2022/11/17 10:04:54;;;;;;;1.98;0.17;;;;;;;7.70;100.00;97811.84;5065173;28;20032;-63
2022/11/17 10:07:20;;;;;;;3.17;0.38;;;;;;;7.78;100.00;97814.88;5060865;28;20063;-63
2022/11/17 10:09:50;;;;;;;2.95;0.90;;;;;;;7.80;100.00;97810.19;5066761;28;20112;-63
2022/11/17 10:12:22;;;;;;;2.22;0.50;;;;;;;7.86;100.00;97813.69;5057793;28;20029;-63
2022/11/17 10:14:48;;;;;;;1.27;1.10;;;;;;;7.95;100.00;97808.81;5056211;28;20029;-62
2022/11/17 10:17:13;;;;;;;4.88;0.73;;;;;;;8.02;100.00;97814.75;5059171;28;20378;-62
2022/11/17 10:19:40;;;;;;;3.22;0.57;;;;;;;8.08;100.00;97806.69;5059161;28;20074;-63
2022/11/17 10:22:05;;;;;;;2.00;0.43;;;;;;;8.11;100.00;97812.53;5052672;28;20438;-62
2022/11/17 10:24:46;;;;;;;1.73;0.75;;;;;;;8.18;100.00;97798.09;5063721;28;20032;-64
2022/11/17 10:27:17;;;;;;;2.00;0.60;;;;;;;8.22;100.00;97801.06;5051933;28;20020;-64
2022/11/17 10:30:14;;;;;;;0.45;0.45;;;;;;;8.36;100.00;97790.97;5066209;28;20034;-62
2022/11/17 10:32:51;;;;;;;0.85;0.75;;;;;;;8.59;100.00;97796.09;5059827;28;20044;-61
2022/11/17 10:35:25;;;;;;;0.13;0.13;;;;;;;8.91;100.00;97798.09;5057989;28;20499;-62
2022/11/17 10:37:57;;;;;;;0.57;0.32;;;;;;;9.15;100.00;97786.22;5064518;28;20063;-62
2022/11/17 10:40:32;;;;;;;1.60;0.30;;;;;;;9.32;100.00;97783.50;5068572;28;20035;-61
2022/11/17 10:43:12;;;;;;;4.57;2.47;;;;;;;9.39;100.00;97805.25;5054377;28;20025;-63
2022/11/17 10:46:05;;;;;;;1.95;0.88;;;;;;;9.25;100.00;97777.63;5057980;28;20118;-61
2022/11/17 10:48:31;;;;;;;1.52;0.52;;;;;;;9.25;100.00;97776.81;5056584;28;20143;-60
2022/11/17 10:51:00;;;;;;;2.25;0.40;;;;;;;9.25;100.00;97780.25;5034059;28;20090;-60
2022/11/17 10:53:25;;;;;;;1.45;0.93;;;;;;;9.27;100.00;97764.16;5062835;28;20744;-58
2022/11/17 10:55:58;;;;;;;1.40;0.55;;;;;;;9.26;100.00;97781.84;5065054;28;20025;-61
2022/11/17 10:58:26;;;;;;;2.55;0.47;;;;;;;9.23;100.00;97790.28;5058050;28;20025;-61
2022/11/17 11:00:57;;;;;;;0.52;0.52;;;;;;;9.13;100.00;97772.44;5056370;28;20445;-61
2022/11/17 11:03:28;;;;;;;4.55;0.82;;;;;;;9.12;100.00;97770.88;5055756;28;20485;-62
2022/11/17 11:05:55;;;;;;;1.38;0.35;;;;;;;9.06;100.00;97778.97;5037495;28;20482;-61
2022/11/17 11:08:24;;;;;;;1.85;0.43;;;;;;;9.06;100.00;97778.97;5057138;28;20033;-61
2022/11/17 11:10:52;;;;;;;2.85;1.00;;;;;;;9.07;100.00;97781.38;5058896;28;20389;-62
2022/11/17 11:13:29;;;;;;;3.97;1.40;;;;;;;9.11;100.00;97787.78;5055360;28;20560;-62
2022/11/17 11:15:55;;;;;;;1.55;0.70;;;;;;;9.20;100.00;97772.28;5055579;28;20033;-63
2022/11/17 11:18:20;;;;;;;0.90;0.47;;;;;;;9.36;100.00;97789.88;5053134;28;20386;-61
2022/11/17 11:21:07;;;;;;;1.65;1.55;;;;;;;9.57;100.00;97776.88;5059712;28;20036;-60
2022/11/17 11:24:01;;;;;;;2.88;0.30;;;;;;;9.91;100.00;97782.72;5048736;28;20036;-62
2022/11/17 11:26:43;;;;;;;3.45;0.60;;;;;;;10.19;100.00;97770.22;5058985;28;20037;-63
2022/11/17 11:29:32;;;;;;;0.63;0.55;;;;;;;10.48;100.00;97773.38;5053533;28;20111;-61
2022/11/17 11:32:15;;;;;;;4.03;0.63;;;;;;;10.50;100.00;97758.00;5064776;28;20029;-63
2022/11/17 11:34:46;;;;;;;2.20;0.10;;;;;;;10.54;100.00;97750.34;5057716;28;20064;-63
2022/11/17 11:37:14;;;;;;;0.75;0.20;;;;;;;10.50;100.00;97741.31;5054193;28;20381;-62
2022/11/17 11:39:51;;;;;;;2.90;0.40;;;;;;;10.56;100.00;97746.41;5054884;28;20032;-62
2022/11/17 11:42:31;;;;;;;3.20;0.30;;;;;;;10.58;100.00;97748.78;5058624;28;20064;-60
2022/11/17 11:45:18;;;;;;;1.75;0.60;;;;;;;10.52;100.00;97737.34;5059646;28;20029;-61
2022/11/17 11:48:12;;;;;;;1.63;0.30;;;;;;;10.46;100.00;97738.41;5055566;28;20120;-59
2022/11/17 11:50:49;;;;;;;2.42;0.60;;;;;;;10.48;100.00;97746.88;5050768;28;20521;-59
2022/11/17 11:53:41;;;;;;;1.10;0.47;;;;;;;10.66;100.00;97759.69;5050417;28;20474;-62
2022/11/17 11:56:13;;;;;;;2.25;0.30;;;;;;;10.62;100.00;97755.97;5050150;28;20043;-62
2022/11/17 11:58:45;;;;;;;0.30;0.30;;;;;;;10.59;100.00;97748.53;5059295;28;20024;-61
2022/11/17 12:01:12;;;;;;;2.90;1.08;;;;;;;10.47;100.00;97756.66;5061292;28;20021;-64
2022/11/17 12:04:05;;;;;;;6.32;0.70;;;;;;;10.46;100.00;97751.66;5055819;28;20504;-63
2022/11/17 12:06:54;;;;;;;2.92;1.52;;;;;;;10.52;100.00;97763.06;5063717;28;20112;-62
2022/11/17 12:09:33;;;;;;;0.90;0.20;;;;;;;10.47;100.00;97763.81;5063009;28;20448;-63
2022/11/17 12:12:00;;;;;;;2.22;0.32;;;;;;;10.51;100.00;97754.31;5053618;28;20021;-62
2022/11/17 12:14:31;;;;;;;2.65;0.60;;;;;;;10.58;100.00;97744.25;5064796;28;20013;-63
2022/11/17 12:17:13;;;;;;;5.80;0.82;;;;;;;10.56;100.00;97756.19;5055551;28;20033;-64
2022/11/17 12:20:01;;;;;;;2.00;0.32;;;;;;;10.73;100.00;97762.09;5066879;28;20044;-62
2022/11/17 12:22:29;;;;;;;1.33;0.15;;;;;;;10.71;100.00;97745.66;5058568;28;20491;-63
2022/11/17 12:25:23;;;;;;;4.35;1.55;;;;;;;10.73;100.00;97750.72;5059757;28;20108;-62
2022/11/17 12:27:51;;;;;;;2.17;0.20;;;;;;;10.72;100.00;97757.88;5036135;28;20076;-63
2022/11/17 12:30:43;;;;;;;0.30;0.22;;;;;;;10.69;100.00;97761.81;5063357;28;20033;-61
2022/11/17 12:33:09;;;;;;;1.95;0.75;;;;;;;10.59;100.00;97748.53;5064016;28;20076;-63
2022/11/17 12:35:40;;;;;;;2.92;0.10;;;;;;;10.62;100.00;97784.31;5059694;28;20123;-59
2022/11/17 12:38:11;;;;;;;1.35;0.10;;;;;;;10.57;100.00;97763.09;5067035;28;20024;-63
2022/11/17 12:40:36;;;;;;;3.30;0.30;;;;;;;10.53;100.00;97757.47;5056515;28;20096;-63
2022/11/17 12:43:14;;;;;;;2.58;0.20;;;;;;;10.57;100.00;97761.22;5054802;28;20443;-62
2022/11/17 12:45:52;;;;;;;1.98;0.75;;;;;;;10.61;100.00;97767.63;5057989;28;20020;-63
2022/11/17 12:48:19;;;;;;;0.85;0.17;;;;;;;10.68;100.00;97776.13;5057228;28;20114;-62
2022/11/17 12:50:56;;;;;;;0.10;0.10;;;;;;;10.69;100.00;97767.13;5061697;28;20127;-63
2022/11/17 12:53:33;;;;;;;0.25;0.17;;;;;;;10.70;100.00;97768.72;5060807;28;20033;-63
2022/11/17 12:56:21;;;;;;;0.10;0.10;;;;;;;10.66;100.00;97772.13;5065020;28;20024;-62
2022/11/17 12:59:07;;;;;;;2.83;0.10;;;;;;;10.58;100.00;97784.00;5062824;28;20039;-62
2022/11/17 13:01:54;;;;;;;0.25;0.20;;;;;;;10.53;100.00;97781.31;5057093;28;20024;-62
2022/11/17 13:04:30;;;;;;;1.95;0.40;;;;;;;10.48;100.00;97781.31;5060489;28;20063;-63
2022/11/17 13:07:07;;;;;;;1.00;0.20;;;;;;;10.43;100.00;97783.94;5058748;28;20081;-62
2022/11/17 13:09:35;;;;;;;1.38;0.10;;;;;;;10.34;100.00;97793.41;5060361;28;20025;-61
2022/11/17 13:12:09;;;;;;;1.33;0.10;;;;;;;10.33;100.00;97791.81;5063774;28;20482;-62
2022/11/17 13:14:50;;;;;;;0.63;0.30;;;;;;;10.32;100.00;97795.50;5061800;28;20032;-61